Maersk Newport — OZDJ2 — position and weather

sailwx.info

Track history (hours):
 
Tides and Currents Weather Stations Pressure Air Temp Water Temp Dewpoint Dewpoint Depression Visibility Wind Speed Wind Dir Waves Ship Positions

Maersk Newport

Last reported at 2017-Dec-15 07:07 UTC. Time now 2017-Dec-15 08:15 UTC.
Position N 37°34' W 000°34'.

Length 210 m; draft 10.2 m.

Type: Ship. MMSI: 219223000.

Date/timePositionNaut miles runAvg speedWind from/ knotsBaromVisibWave heightAir tempDewpointWater temp
2017-Dec-15 07:07N 37°34' W 000°34'216.1
2017-Dec-15 07:01N 37°35' W 000°33'816.4
2017-Dec-15 06:30N 37°42' W 000°28'916.6
2017-Dec-15 05:59N 37°50' W 000°22'816.1
2017-Dec-15 05:30N 37°56' W 000°15'383 7.7
2017-Dec-13 03:33N 43°01' E 004°48'012.2
2017-Dec-13 03:30N 43°01' E 004°49'612.4
2017-Dec-13 03:00N 43°06' E 004°54'612.8
2017-Dec-13 02:31N 43°11' E 004°59'612.2
2017-Dec-13 02:00N 43°17' E 004°59'611.4
2017-Dec-13 01:31N 43°23' E 004°57'510.5
2017-Dec-13 01:00N 43°25' E 004°50'0 0.4
2017-Dec-13 00:29N 43°25' E 004°50'0 0.0
2017-Dec-12 23:59N 43°25' E 004°50'0 0.0
2017-Dec-12 23:29N 43°25' E 004°50'0 0.0
2017-Dec-12 22:59N 43°25' E 004°50'0 0.0
2017-Dec-12 22:29N 43°25' E 004°50'0 0.0
2017-Dec-12 21:59N 43°25' E 004°50'0 0.0
2017-Dec-12 21:29N 43°25' E 004°50'0 0.0
2017-Dec-12 20:59N 43°25' E 004°50'0 0.0
2017-Dec-12 20:29N 43°25' E 004°50'0 0.0
2017-Dec-12 19:59N 43°25' E 004°50'0 0.0
2017-Dec-12 19:29N 43°25' E 004°50'0 0.0
2017-Dec-12 18:59N 43°25' E 004°50'0 0.0
2017-Dec-12 18:29N 43°25' E 004°50'0 0.0
2017-Dec-12 17:59N 43°25' E 004°50'0 0.0
2017-Dec-12 17:29N 43°25' E 004°50'0 0.0
2017-Dec-12 16:59N 43°25' E 004°50'0 0.0
2017-Dec-12 16:29N 43°25' E 004°50'0 0.0
2017-Dec-12 15:59N 43°25' E 004°50'0 0.0
2017-Dec-12 15:29N 43°25' E 004°50'0 0.0
2017-Dec-12 14:59N 43°25' E 004°50'0 0.0
2017-Dec-12 14:29N 43°25' E 004°50'0 0.0
2017-Dec-12 13:59N 43°25' E 004°50'0 0.0
2017-Dec-12 13:29N 43°25' E 004°50'0 0.0
2017-Dec-12 12:59N 43°25' E 004°50'0 0.0
2017-Dec-12 12:29N 43°25' E 004°50'0 0.3
2017-Dec-12 12:00N 43°25' E 004°50'4 7.4
2017-Dec-12 11:30N 43°24' E 004°55'5 9.3
2017-Dec-12 11:01N 43°20' E 004°59'3 5.5
2017-Dec-12 10:31N 43°17' E 005°00'3 5.6
2017-Dec-12 10:01N 43°15' E 005°02'3 6.1
2017-Dec-12 09:27N 43°12' E 005°04'510.0
2017-Dec-12 09:00N 43°09' E 005°08'54715.9
2017-Dec-10 22:40N 38°32' E 015°32'416.6
2017-Dec-10 22:26N 38°29' E 015°36'716.5
2017-Dec-10 22:00N 38°23' E 015°41'814.1
2017-Dec-10 21:24N 38°15' E 015°40'615.5
2017-Dec-10 21:01N 38°09' E 015°37'917.4
2017-Dec-10 20:30N 38°01' E 015°36'917.1
2017-Dec-10 20:00N 37°53' E 015°39'816.2
2017-Dec-10 19:31N 37°49' E 015°48'816.7
2017-Dec-10 19:01N 37°46' E 015°58'39616.0
2017-Dec-09 18:16N 35°58' E 023°54'416.0
2017-Dec-09 18:01N 35°58' E 023°59'816.4
2017-Dec-09 17:31N 35°56' E 024°09'816.1
2017-Dec-09 17:01N 35°55' E 024°19'816.4
2017-Dec-09 16:31N 35°53' E 024°29'816.5
2017-Dec-09 16:01N 35°51' E 024°39'816.4
2017-Dec-09 15:31N 35°49' E 024°48'916.7
2017-Dec-09 14:59N 35°47' E 024°59'816.7
2017-Dec-09 14:31N 35°45' E 025°08'816.7
2017-Dec-09 14:01N 35°44' E 025°19'816.6
2017-Dec-09 13:31N 35°42' E 025°29'816.3
2017-Dec-09 13:01N 35°40' E 025°38'816.2
2017-Dec-09 12:30N 35°38' E 025°48'816.5
2017-Dec-09 12:00N 35°34' E 025°57'  
2017-Dec-07 06:34N 32°51' E 035°01'0 5.8
2017-Dec-07 06:30N 32°51' E 035°01'5 8.9
2017-Dec-07 05:56N 32°54' E 034°56'511.9
2017-Dec-07 05:29N 32°55' E 034°50'  
Track history (hours):
 
Tides and Currents Weather Stations Pressure Air Temp Water Temp Dewpoint Dewpoint Depression Visibility Wind Speed Wind Dir Waves Ship Positions

Maersk Newport

Last reported at 2017-Dec-15 07:07 UTC. Time now 2017-Dec-15 08:15 UTC.
Position N 37°34' W 000°34'.

Length 210 m; draft 10.2 m.

Type: Ship. MMSI: 219223000.

Date/timePositionNaut miles runAvg speedWind from/ knotsBaromVisibWave heightAir tempDewpointWater temp
2017-Dec-15 07:07N 37°34' W 000°34'216.1
2017-Dec-15 07:01N 37°35' W 000°33'816.4
2017-Dec-15 06:30N 37°42' W 000°28'916.6
2017-Dec-15 05:59N 37°50' W 000°22'816.1
2017-Dec-15 05:30N 37°56' W 000°15'383 7.7
2017-Dec-13 03:33N 43°01' E 004°48'012.2
2017-Dec-13 03:30N 43°01' E 004°49'612.4
2017-Dec-13 03:00N 43°06' E 004°54'612.8
2017-Dec-13 02:31N 43°11' E 004°59'612.2
2017-Dec-13 02:00N 43°17' E 004°59'611.4
2017-Dec-13 01:31N 43°23' E 004°57'510.5
2017-Dec-13 01:00N 43°25' E 004°50'0 0.4
2017-Dec-13 00:29N 43°25' E 004°50'0 0.0
2017-Dec-12 23:59N 43°25' E 004°50'0 0.0
2017-Dec-12 23:29N 43°25' E 004°50'0 0.0
2017-Dec-12 22:59N 43°25' E 004°50'0 0.0
2017-Dec-12 22:29N 43°25' E 004°50'0 0.0
2017-Dec-12 21:59N 43°25' E 004°50'0 0.0
2017-Dec-12 21:29N 43°25' E 004°50'0 0.0
2017-Dec-12 20:59N 43°25' E 004°50'0 0.0
2017-Dec-12 20:29N 43°25' E 004°50'0 0.0
2017-Dec-12 19:59N 43°25' E 004°50'0 0.0
2017-Dec-12 19:29N 43°25' E 004°50'0 0.0
2017-Dec-12 18:59N 43°25' E 004°50'0 0.0
2017-Dec-12 18:29N 43°25' E 004°50'0 0.0
2017-Dec-12 17:59N 43°25' E 004°50'0 0.0
2017-Dec-12 17:29N 43°25' E 004°50'0 0.0
2017-Dec-12 16:59N 43°25' E 004°50'0 0.0
2017-Dec-12 16:29N 43°25' E 004°50'0 0.0
2017-Dec-12 15:59N 43°25' E 004°50'0 0.0
2017-Dec-12 15:29N 43°25' E 004°50'0 0.0
2017-Dec-12 14:59N 43°25' E 004°50'0 0.0
2017-Dec-12 14:29N 43°25' E 004°50'0 0.0
2017-Dec-12 13:59N 43°25' E 004°50'0 0.0
2017-Dec-12 13:29N 43°25' E 004°50'0 0.0
2017-Dec-12 12:59N 43°25' E 004°50'0 0.0
2017-Dec-12 12:29N 43°25' E 004°50'0 0.3
2017-Dec-12 12:00N 43°25' E 004°50'4 7.4
2017-Dec-12 11:30N 43°24' E 004°55'5 9.3
2017-Dec-12 11:01N 43°20' E 004°59'3 5.5
2017-Dec-12 10:31N 43°17' E 005°00'3 5.6
2017-Dec-12 10:01N 43°15' E 005°02'3 6.1
2017-Dec-12 09:27N 43°12' E 005°04'510.0
2017-Dec-12 09:00N 43°09' E 005°08'54715.9
2017-Dec-10 22:40N 38°32' E 015°32'416.6
2017-Dec-10 22:26N 38°29' E 015°36'716.5
2017-Dec-10 22:00N 38°23' E 015°41'814.1
2017-Dec-10 21:24N 38°15' E 015°40'615.5
2017-Dec-10 21:01N 38°09' E 015°37'917.4
2017-Dec-10 20:30N 38°01' E 015°36'917.1
2017-Dec-10 20:00N 37°53' E 015°39'816.2
2017-Dec-10 19:31N 37°49' E 015°48'816.7
2017-Dec-10 19:01N 37°46' E 015°58'39616.0
2017-Dec-09 18:16N 35°58' E 023°54'416.0
2017-Dec-09 18:01N 35°58' E 023°59'816.4
2017-Dec-09 17:31N 35°56' E 024°09'816.1
2017-Dec-09 17:01N 35°55' E 024°19'816.4
2017-Dec-09 16:31N 35°53' E 024°29'816.5
2017-Dec-09 16:01N 35°51' E 024°39'816.4
2017-Dec-09 15:31N 35°49' E 024°48'916.7
2017-Dec-09 14:59N 35°47' E 024°59'816.7
2017-Dec-09 14:31N 35°45' E 025°08'816.7
2017-Dec-09 14:01N 35°44' E 025°19'816.6
2017-Dec-09 13:31N 35°42' E 025°29'816.3
2017-Dec-09 13:01N 35°40' E 025°38'816.2
2017-Dec-09 12:30N 35°38' E 025°48'816.5
2017-Dec-09 12:00N 35°34' E 025°57'  
2017-Dec-07 06:34N 32°51' E 035°01'0 5.8
2017-Dec-07 06:30N 32°51' E 035°01'5 8.9
2017-Dec-07 05:56N 32°54' E 034°56'511.9
2017-Dec-07 05:29N 32°55' E 034°50'  

Dump ship's entire track history